Time;durP1;ratioP1;P1;durP2;ratioP2;P2;SDS_P1;SDS_P2;PMS_P1;PMS_P2;Temp;Humidity;BMP_temperature;BMP_pressure;BME280_temperature;BME280_humidity;BME280_pressure;Samples;Min_cycle;Max_cycle;Signal;HPM_P1;HPM_P2
2021/09/07 00:00:33;;;;;;;;;;;;;;;16.15;72.28;102456.59;5093441;28;19916;-36
2021/09/07 00:02:58;;;;;;;;;;;;;;;16.12;72.44;102455.19;5093659;28;19908;-36
2021/09/07 00:05:24;;;;;;;;;;;;;;;16.11;72.45;102449.97;5093823;28;20005;-36
2021/09/07 00:07:49;;;;;;;;;;;;;;;16.05;72.52;102448.94;5094225;28;20002;-36
2021/09/07 00:10:14;;;;;;;;;;;;;;;16.02;72.22;102449.44;5093627;28;19969;-36
2021/09/07 00:12:40;;;;;;;;;;;;;;;15.99;72.27;102451.78;5093613;28;19907;-36
2021/09/07 00:15:08;;;;;;;;;;;;;;;15.94;72.81;102449.72;5093407;28;19912;-36
2021/09/07 00:17:33;;;;;;;;;;;;;;;15.92;72.56;102452.69;5093602;28;19915;-36
2021/09/07 00:19:58;;;;;;;;;;;;;;;15.91;73.12;102442.84;5093165;28;19908;-36
2021/09/07 00:22:23;;;;;;;;;;;;;;;15.91;72.51;102439.28;5093597;28;19908;-36
2021/09/07 00:24:49;;;;;;;;;;;;;;;15.85;73.02;102435.56;5093245;28;19918;-36
2021/09/07 00:27:14;;;;;;;;;;;;;;;15.82;73.11;102432.47;5093507;28;19908;-36
2021/09/07 00:29:39;;;;;;;;;;;;;;;15.80;72.75;102431.84;5093284;28;19965;-36
2021/09/07 00:32:05;;;;;;;;;;;;;;;15.77;73.05;102422.25;5093503;28;19908;-36
2021/09/07 00:34:30;;;;;;;;;;;;;;;15.77;72.80;102422.25;5093236;28;20318;-36
2021/09/07 00:36:56;;;;;;;;;;;;;;;15.75;73.29;102427.06;5092918;28;19915;-36
2021/09/07 00:39:21;;;;;;;;;;;;;;;15.70;73.01;102416.84;5093810;28;19908;-36
2021/09/07 00:41:46;;;;;;;;;;;;;;;15.67;73.16;102419.22;5094220;28;19912;-36
2021/09/07 00:44:16;;;;;;;;;;;;;;;15.63;73.14;102416.09;5092817;28;19908;-36
2021/09/07 00:46:42;;;;;;;;;;;;;;;15.62;73.23;102427.19;5092784;28;19915;-36
2021/09/07 00:49:07;;;;;;;;;;;;;;;15.58;73.42;102418.63;5093363;28;19912;-36
2021/09/07 00:51:34;;;;;;;;;;;;;;;15.57;73.53;102419.69;5097698;28;19992;-36
2021/09/07 00:54:00;;;;;;;;;;;;;;;15.55;73.69;102423.69;5096490;28;19907;-36
2021/09/07 00:56:25;;;;;;;;;;;;;;;15.52;73.75;102418.69;5096910;28;20249;-36
2021/09/07 00:58:51;;;;;;;;;;;;;;;15.50;73.69;102409.91;5096732;28;20011;-36
2021/09/07 01:01:17;;;;;;;;;;;;;;;15.49;73.94;102409.06;5097247;28;19915;-36
2021/09/07 01:03:42;;;;;;;;;;;;;;;15.47;73.51;102411.22;5096623;28;19908;-36
2021/09/07 01:06:07;;;;;;;;;;;;;;;15.46;73.51;102406.78;5097072;28;20268;-36
2021/09/07 01:08:32;;;;;;;;;;;;;;;15.45;73.94;102403.25;5096771;28;19928;-36
2021/09/07 01:10:58;;;;;;;;;;;;;;;15.42;73.80;102403.72;5096245;28;20028;-36
2021/09/07 01:13:24;;;;;;;;;;;;;;;15.41;73.72;102395.72;5096372;28;19908;-36
2021/09/07 01:15:49;;;;;;;;;;;;;;;15.39;73.87;102397.88;5097437;28;19923;-36
2021/09/07 01:18:14;;;;;;;;;;;;;;;15.37;73.64;102399.97;5096349;28;19908;-36
2021/09/07 01:20:39;;;;;;;;;;;;;;;15.36;73.69;102409.19;5095951;28;19915;-36
2021/09/07 01:23:05;;;;;;;;;;;;;;;15.34;74.09;102394.97;5096244;28;19908;-36
2021/09/07 01:25:30;;;;;;;;;;;;;;;15.33;73.99;102399.59;5096231;28;19915;-36
2021/09/07 01:27:55;;;;;;;;;;;;;;;15.33;74.17;102398.78;5095880;28;19908;-36
2021/09/07 01:30:20;;;;;;;;;;;;;;;15.32;74.15;102397.09;5095840;28;19908;-36
2021/09/07 01:32:45;;;;;;;;;;;;;;;15.31;73.99;102400.88;5095855;28;19908;-36
2021/09/07 01:35:11;;;;;;;;;;;;;;;15.28;74.03;102402.16;5095730;28;19908;-36
2021/09/07 01:37:37;;;;;;;;;;;;;;;15.25;74.42;102388.97;5096034;28;19908;-36
2021/09/07 01:40:02;;;;;;;;;;;;;;;15.23;73.95;102388.38;5095616;28;20424;-36
2021/09/07 01:42:28;;;;;;;;;;;;;;;15.20;74.27;102386.94;5096736;28;19958;-36
2021/09/07 01:44:53;;;;;;;;;;;;;;;15.19;74.58;102393.44;5096050;28;19908;-36
2021/09/07 01:47:18;;;;;;;;;;;;;;;15.18;74.13;102393.69;5095784;28;20053;-36
2021/09/07 01:49:43;;;;;;;;;;;;;;;15.16;74.58;102393.03;5095520;28;20255;-36
2021/09/07 01:52:13;;;;;;;;;;;;;;;15.11;74.45;102391.00;5095898;28;19908;-36
2021/09/07 01:54:39;;;;;;;;;;;;;;;15.09;74.32;102400.47;5095603;28;20324;-36
2021/09/07 01:57:05;;;;;;;;;;;;;;;15.05;74.70;102389.16;5095866;28;20340;-36
2021/09/07 01:59:30;;;;;;;;;;;;;;;15.03;74.32;102394.03;5095193;28;19912;-36
2021/09/07 02:01:55;;;;;;;;;;;;;;;15.01;74.65;102393.41;5095181;28;19915;-36
2021/09/07 02:04:21;;;;;;;;;;;;;;;14.98;74.81;102393.81;5095411;28;19908;-36
2021/09/07 02:06:46;;;;;;;;;;;;;;;14.96;74.92;102398.69;5095726;28;19915;-35
2021/09/07 02:09:11;;;;;;;;;;;;;;;14.93;74.59;102390.94;5095349;28;19985;-36
2021/09/07 02:11:36;;;;;;;;;;;;;;;14.90;75.01;102400.41;5095737;28;19908;-36
2021/09/07 02:14:01;;;;;;;;;;;;;;;14.88;75.02;102398.94;5095060;28;19908;-36
2021/09/07 02:16:27;;;;;;;;;;;;;;;14.88;74.84;102409.84;5095447;28;19911;-36
2021/09/07 02:18:52;;;;;;;;;;;;;;;14.87;75.06;102400.00;5095118;28;20391;-36
2021/09/07 02:21:17;;;;;;;;;;;;;;;14.88;75.05;102409.84;5095889;28;19912;-36
2021/09/07 02:23:42;;;;;;;;;;;;;;;14.87;75.03;102413.63;5095130;28;19907;-36
2021/09/07 02:26:07;;;;;;;;;;;;;;;14.85;74.95;102411.13;5095344;28;20356;-36
2021/09/07 02:28:33;;;;;;;;;;;;;;;14.83;75.21;102415.94;5095276;28;19915;-35
2021/09/07 02:30:58;;;;;;;;;;;;;;;14.80;74.94;102419.13;5094955;28;20234;-36
2021/09/07 02:33:23;;;;;;;;;;;;;;;14.79;75.27;102420.19;5094897;28;19914;-36
2021/09/07 02:35:48;;;;;;;;;;;;;;;14.78;75.07;102421.22;5094996;28;20186;-36
2021/09/07 02:38:13;;;;;;;;;;;;;;;14.75;75.39;102409.97;5094763;28;20387;-36
2021/09/07 02:40:39;;;;;;;;;;;;;;;14.73;75.63;102409.31;5094775;28;20340;-36
2021/09/07 02:43:04;;;;;;;;;;;;;;;14.68;75.50;102408.09;5095056;28;19961;-36
2021/09/07 02:45:29;;;;;;;;;;;;;;;14.66;75.28;102406.66;5094324;28;19915;-36
2021/09/07 02:47:54;;;;;;;;;;;;;;;14.62;75.54;102398.09;5095015;28;19998;-36
2021/09/07 02:50:20;;;;;;;;;;;;;;;14.62;75.61;102403.53;5094274;28;19908;-36
2021/09/07 02:52:45;;;;;;;;;;;;;;;14.61;75.35;102406.50;5094922;28;19907;-35
2021/09/07 02:55:10;;;;;;;;;;;;;;;14.60;75.79;102393.94;5094404;28;19908;-36
2021/09/07 02:57:36;;;;;;;;;;;;;;;14.61;75.64;102387.44;5094536;28;19908;-36
2021/09/07 03:00:02;;;;;;;;;;;;;;;14.61;75.79;102384.72;5094315;28;20045;-36
2021/09/07 03:02:27;;;;;;;;;;;;;;;14.63;75.67;102382.59;5094722;28;20235;-35
2021/09/07 03:04:52;;;;;;;;;;;;;;;14.61;75.85;102382.81;5094229;28;19908;-36
2021/09/07 03:07:18;;;;;;;;;;;;;;;14.61;75.96;102376.53;5094678;28;19995;-36
2021/09/07 03:09:43;;;;;;;;;;;;;;;14.61;76.42;102374.66;5094095;28;19908;-36
2021/09/07 03:12:09;;;;;;;;;;;;;;;14.64;76.02;102376.94;5094354;28;19907;-36
2021/09/07 03:14:34;;;;;;;;;;;;;;;14.67;75.96;102376.47;5094128;28;19919;-36
2021/09/07 03:16:59;;;;;;;;;;;;;;;14.71;76.04;102367.88;5094130;28;19915;-36
2021/09/07 03:19:24;;;;;;;;;;;;;;;14.71;76.27;102368.72;5094007;28;19914;-36
2021/09/07 03:21:50;;;;;;;;;;;;;;;14.73;75.89;102361.16;5094300;28;19912;-35
2021/09/07 03:24:15;;;;;;;;;;;;;;;14.77;76.23;102358.81;5094340;28;20336;-36
2021/09/07 03:26:40;;;;;;;;;;;;;;;14.80;75.96;102361.13;5093977;28;19908;-36
2021/09/07 03:29:05;;;;;;;;;;;;;;;14.80;76.14;102363.84;5093627;28;19992;-36
2021/09/07 03:31:31;;;;;;;;;;;;;;;14.79;76.12;102364.91;5094169;28;19987;-36
2021/09/07 03:33:56;;;;;;;;;;;;;;;14.82;75.99;102365.25;5093903;28;19915;-36
2021/09/07 03:36:21;;;;;;;;;;;;;;;14.87;75.79;102367.31;5094459;28;19907;-36
2021/09/07 03:38:46;;;;;;;;;;;;;;;14.89;78.81;102374.22;5094378;28;20026;-36
2021/09/07 03:41:12;;;;;;;;;;;;;;;14.88;77.34;102369.84;5094458;28;19953;-36
2021/09/07 03:43:37;;;;;;;;;;;;;;;14.91;77.18;102371.28;5094159;28;19916;-36
2021/09/07 03:46:02;;;;;;;;;;;;;;;14.93;77.05;102366.41;5093814;28;20014;-36
2021/09/07 03:48:28;;;;;;;;;;;;;;;14.98;76.64;102363.88;5093415;28;20260;-36
2021/09/07 03:50:53;;;;;;;;;;;;;;;15.00;76.99;102369.09;5094207;28;19930;-36
2021/09/07 03:53:18;;;;;;;;;;;;;;;14.99;76.61;102360.09;5092159;28;19908;-36
2021/09/07 03:55:43;;;;;;;;;;;;;;;14.99;81.16;102362.84;5093007;28;19915;-36
2021/09/07 03:58:09;;;;;;;;;;;;;;;14.94;78.96;102362.66;5093601;28;20360;-36
2021/09/07 04:00:34;;;;;;;;;;;;;;;14.93;78.28;102363.69;5093754;28;20264;-36
2021/09/07 04:02:59;;;;;;;;;;;;;;;14.97;77.52;102370.38;5093618;28;20236;-36
2021/09/07 04:05:24;;;;;;;;;;;;;;;14.99;77.60;102368.28;5093863;28;20209;-35
2021/09/07 04:07:50;;;;;;;;;;;;;;;14.99;77.73;102375.63;5093564;28;19908;-36
2021/09/07 04:10:15;;;;;;;;;;;;;;;14.97;77.52;102373.09;5093954;28;19915;-35
2021/09/07 04:12:40;;;;;;;;;;;;;;;14.97;76.98;102366.81;5093233;28;20405;-35
2021/09/07 04:15:06;;;;;;;;;;;;;;;14.97;76.92;102358.66;5093444;28;20055;-36
2021/09/07 04:17:31;;;;;;;;;;;;;;;14.93;77.87;102361.84;5093199;28;19944;-35
2021/09/07 04:19:56;;;;;;;;;;;;;;;14.85;79.55;102366.72;5093318;28;19919;-36
2021/09/07 04:22:22;;;;;;;;;;;;;;;14.79;78.25;102371.19;5093350;28;20263;-35
2021/09/07 04:24:47;;;;;;;;;;;;;;;14.79;78.01;102370.34;5094751;28;19966;-36
2021/09/07 04:27:12;;;;;;;;;;;;;;;14.78;77.94;102366.75;5097641;28;19908;-36
2021/09/07 04:29:37;;;;;;;;;;;;;;;14.78;77.82;102372.19;5096901;28;19914;-35
2021/09/07 04:32:03;;;;;;;;;;;;;;;14.77;77.70;102367.81;5095774;28;19908;-36
2021/09/07 04:34:28;;;;;;;;;;;;;;;14.79;77.57;102373.06;5096898;28;20326;-36
2021/09/07 04:36:53;;;;;;;;;;;;;;;14.75;77.35;102367.22;5096957;28;19908;-35
2021/09/07 04:39:18;;;;;;;;;;;;;;;14.73;77.51;102366.59;5097141;28;19908;-35
2021/09/07 04:41:44;;;;;;;;;;;;;;;14.68;77.08;102369.97;5097724;28;19954;-36
2021/09/07 04:44:10;;;;;;;;;;;;;;;14.64;77.46;102368.78;5097065;28;20313;-36
2021/09/07 04:46:35;;;;;;;;;;;;;;;14.65;77.33;102377.78;5097016;28;19908;-36
2021/09/07 04:49:00;;;;;;;;;;;;;;;14.62;77.51;102370.03;5097079;28;19907;-36
2021/09/07 04:51:26;;;;;;;;;;;;;;;14.56;77.45;102377.19;5096979;28;19908;-36
2021/09/07 04:53:52;;;;;;;;;;;;;;;14.52;77.55;102370.53;5096717;28;19915;-36
2021/09/07 04:56:20;;;;;;;;;;;;;;;14.51;77.53;102374.31;5096723;28;19912;-36
2021/09/07 04:58:45;;;;;;;;;;;;;;;14.50;77.38;102375.38;5096306;28;19915;-36
2021/09/07 05:01:11;;;;;;;;;;;;;;;14.46;77.82;102381.44;5096687;28;19908;-36
2021/09/07 05:03:36;;;;;;;;;;;;;;;14.43;77.50;102377.25;5096492;28;19908;-36
2021/09/07 05:06:01;;;;;;;;;;;;;;;14.40;77.59;102381.25;5096582;28;19942;-35
2021/09/07 05:08:27;;;;;;;;;;;;;;;14.39;77.73;102384.19;5096089;28;19999;-36
2021/09/07 05:10:52;;;;;;;;;;;;;;;14.37;77.56;102389.84;5096629;28;19914;-36
2021/09/07 05:13:17;;;;;;;;;;;;;;;14.33;77.62;102382.34;5096321;28;20284;-36
2021/09/07 05:15:42;;;;;;;;;;;;;;;14.34;78.22;102386.72;5096174;28;19912;-36
2021/09/07 05:18:08;;;;;;;;;;;;;;;14.33;77.75;102379.63;5096312;28;19915;-36
2021/09/07 05:20:33;;;;;;;;;;;;;;;14.32;77.84;102384.22;5096637;28;19908;-36
2021/09/07 05:22:58;;;;;;;;;;;;;;;14.33;77.79;102385.06;5096627;28;20422;-36
2021/09/07 05:25:26;;;;;;;;;;;;;;;14.33;78.04;102385.91;5096428;28;19915;-36
2021/09/07 05:27:51;;;;;;;;;;;;;;;14.34;77.43;102394.88;5096059;28;20344;-36
2021/09/07 05:30:16;;;;;;;;;;;;;;;14.34;78.05;102392.16;5095717;28;19923;-36
2021/09/07 05:32:41;;;;;;;;;;;;;;;14.36;81.73;102388.19;5096005;28;19908;-36
2021/09/07 05:35:07;;;;;;;;;;;;;;;14.36;79.25;102388.19;5095590;28;20014;-36
2021/09/07 05:37:38;;;;;;;;;;;;;;;14.38;78.30;102396.13;5095858;28;19931;-36
2021/09/07 05:40:04;;;;;;;;;;;;;;;14.39;78.64;102397.78;5095707;28;20370;-36
2021/09/07 05:42:30;;;;;;;;;;;;;;;14.42;78.64;102398.19;5096503;28;19972;-36
2021/09/07 05:44:55;;;;;;;;;;;;;;;14.46;78.56;102393.16;5095679;28;20425;-36
2021/09/07 05:47:20;;;;;;;;;;;;;;;14.52;78.49;102397.75;5095562;28;19908;-35
2021/09/07 05:49:47;;;;;;;;;;;;;;;14.52;78.10;102395.03;5095493;28;19953;-36
2021/09/07 05:52:12;;;;;;;;;;;;;;;14.62;78.49;102395.38;5095600;28;19908;-36
2021/09/07 05:54:38;;;;;;;;;;;;;;;14.66;78.39;102398.50;5095526;28;19912;-36
2021/09/07 05:57:03;;;;;;;;;;;;;;;14.67;78.31;102401.00;5095272;28;20297;-36
2021/09/07 05:59:28;;;;;;;;;;;;;;;14.72;78.21;102397.59;5095938;28;19915;-35
2021/09/07 06:01:53;;;;;;;;;;;;;;;14.79;78.16;102406.56;5095464;28;20356;-36
2021/09/07 06:04:19;;;;;;;;;;;;;;;14.86;77.77;102401.91;5095535;28;19987;-36
2021/09/07 06:06:44;;;;;;;;;;;;;;;14.86;77.91;102391.00;5095294;28;20337;-36
2021/09/07 06:09:09;;;;;;;;;;;;;;;14.89;77.71;102398.75;5094946;28;19914;-36
2021/09/07 06:11:34;;;;;;;;;;;;;;;14.91;78.16;102395.78;5095864;28;19919;-36
2021/09/07 06:13:59;;;;;;;;;;;;;;;14.98;78.31;102398.44;5094828;28;20251;-36
2021/09/07 06:16:25;;;;;;;;;;;;;;;15.05;78.25;102400.06;5094791;28;20348;-36
2021/09/07 06:18:50;;;;;;;;;;;;;;;15.13;78.65;102396.25;5094918;28;19915;-36
2021/09/07 06:21:15;;;;;;;;;;;;;;;15.20;80.44;102402.44;5094669;28;19947;-36
2021/09/07 06:23:40;;;;;;;;;;;;;;;15.21;79.11;102409.56;5094871;28;19961;-36
2021/09/07 06:26:06;;;;;;;;;;;;;;;15.26;79.30;102412.44;5095361;28;19977;-36
2021/09/07 06:28:31;;;;;;;;;;;;;;;15.29;78.79;102406.56;5095020;28;20336;-35
2021/09/07 06:30:56;;;;;;;;;;;;;;;15.36;79.26;102406.47;5095103;28;19947;-36
2021/09/07 06:33:22;;;;;;;;;;;;;;;15.44;78.90;102409.75;5094802;28;20315;-36
2021/09/07 06:35:47;;;;;;;;;;;;;;;15.49;79.16;102410.97;5094826;28;19964;-35
2021/09/07 06:38:12;;;;;;;;;;;;;;;15.51;80.17;102406.94;5094694;28;19954;-36
2021/09/07 06:40:39;;;;;;;;;;;;;;;15.52;79.88;102408.63;5094673;28;19977;-35
2021/09/07 06:43:04;;;;;;;;;;;;;;;15.58;81.06;102402.28;5094613;28;19908;-35
2021/09/07 06:45:29;;;;;;;;;;;;;;;15.64;81.97;102406.00;5094544;28;19919;-35
2021/09/07 06:47:55;;;;;;;;;;;;;;;15.69;84.76;102409.72;5093841;28;19908;-34
2021/09/07 06:50:20;;;;;;;;;;;;;;;15.76;82.82;102412.34;5095083;28;19908;-34
2021/09/07 06:52:45;;;;;;;;;;;;;;;15.88;82.14;102404.28;5095301;28;19932;-35
2021/09/07 06:55:10;;;;;;;;;;;;;;;16.03;83.38;102406.59;5094053;28;19915;-35
2021/09/07 06:57:36;;;;;;;;;;;;;;;16.18;84.71;102407.84;5094839;28;20295;-35
2021/09/07 07:00:04;;;;;;;;;;;;;;;16.29;83.34;102399.94;5094252;28;19998;-34
2021/09/07 07:02:29;;;;;;;;;;;;;;;16.40;82.65;102396.44;5093075;28;19908;-35
2021/09/07 07:04:55;;;;;;;;;;;;;;;16.51;82.67;102398.38;5094191;28;19912;-35
2021/09/07 07:07:20;;;;;;;;;;;;;;;16.64;82.65;102402.78;5094463;28;19951;-35
2021/09/07 07:09:45;;;;;;;;;;;;;;;16.74;82.16;102400.38;5093945;28;20039;-35
2021/09/07 07:12:10;;;;;;;;;;;;;;;16.82;81.82;102399.19;5094574;28;19908;-35
2021/09/07 07:14:35;;;;;;;;;;;;;;;16.89;81.73;102408.13;5093890;28;20294;-35
2021/09/07 07:17:01;;;;;;;;;;;;;;;16.93;80.41;102403.81;5094430;28;19912;-35
2021/09/07 07:19:26;;;;;;;;;;;;;;;17.01;80.27;102395.28;5094009;28;20346;-35
2021/09/07 07:21:51;;;;;;;;;;;;;;;17.09;80.20;102397.69;5094196;28;20259;-35
2021/09/07 07:24:16;;;;;;;;;;;;;;;17.15;80.01;102406.81;5094199;28;20340;-35
2021/09/07 07:26:42;;;;;;;;;;;;;;;17.22;79.99;102408.34;5093609;28;19908;-35
2021/09/07 07:29:08;;;;;;;;;;;;;;;17.35;80.04;102410.03;5093588;28;19965;-35
2021/09/07 07:31:33;;;;;;;;;;;;;;;17.46;79.87;102409.19;5093765;28;19908;-35
2021/09/07 07:33:58;;;;;;;;;;;;;;;17.58;79.46;102416.56;5093475;28;19915;-35
2021/09/07 07:36:23;;;;;;;;;;;;;;;17.66;79.63;102419.75;5093694;28;19958;-35
2021/09/07 07:38:48;;;;;;;;;;;;;;;17.72;78.80;102424.28;5093723;28;19908;-35
2021/09/07 07:41:14;;;;;;;;;;;;;;;17.81;78.95;102415.72;5092962;28;19999;-35
2021/09/07 07:43:44;;;;;;;;;;;;;;;17.88;79.59;102421.91;5093608;28;19907;-35
2021/09/07 07:46:10;;;;;;;;;;;;;;;17.92;78.96;102420.34;5094363;28;19908;-35
2021/09/07 07:48:35;;;;;;;;;;;;;;;18.00;78.87;102425.41;5093634;28;20375;-35
2021/09/07 07:51:00;;;;;;;;;;;;;;;18.11;78.46;102431.97;5093596;28;20340;-35
2021/09/07 07:53:25;;;;;;;;;;;;;;;18.16;77.57;102427.41;5093214;28;19915;-35
2021/09/07 07:55:50;;;;;;;;;;;;;;;18.23;77.86;102436.28;5093972;28;19915;-35
2021/09/07 07:58:16;;;;;;;;;;;;;;;18.32;78.04;102434.00;5093349;28;19908;-35
2021/09/07 08:00:41;;;;;;;;;;;;;;;18.41;77.83;102439.94;5093868;28;19908;-35
2021/09/07 08:03:06;;;;;;;;;;;;;;;18.47;77.85;102441.69;5093985;28;19931;-35
2021/09/07 08:05:31;;;;;;;;;;;;;;;18.55;77.83;102446.78;5093665;28;19908;-35
2021/09/07 08:07:57;;;;;;;;;;;;;;;18.59;77.47;102445.19;5093783;28;20213;-35
2021/09/07 08:10:22;;;;;;;;;;;;;;;18.64;77.32;102437.09;5093247;28;19908;-35
2021/09/07 08:12:47;;;;;;;;;;;;;;;18.75;77.36;102433.47;5093105;28;19908;-35
2021/09/07 08:15:12;;;;;;;;;;;;;;;18.85;78.21;102427.34;5093309;28;19911;-35
2021/09/07 08:17:38;;;;;;;;;;;;;;;18.90;77.16;102430.16;5093301;28;20296;-35
2021/09/07 08:20:03;;;;;;;;;;;;;;;18.94;76.85;102438.72;5093200;28;20015;-35
2021/09/07 08:22:29;;;;;;;;;;;;;;;19.00;76.82;102437.72;5092948;28;19915;-35
2021/09/07 08:24:54;;;;;;;;;;;;;;;19.05;75.97;102435.06;5093225;28;19908;-35
2021/09/07 08:27:20;;;;;;;;;;;;;;;19.12;76.19;102432.97;5094070;28;19912;-35
2021/09/07 08:29:45;;;;;;;;;;;;;;;19.25;76.52;102440.03;5092862;28;19931;-35
2021/09/07 08:32:10;;;;;;;;;;;;;;;19.38;76.50;102441.63;5093099;28;19915;-35
2021/09/07 08:34:35;;;;;;;;;;;;;;;19.48;76.42;102434.38;5092891;28;19911;-35
2021/09/07 08:37:02;;;;;;;;;;;;;;;19.58;74.54;102435.59;5093556;28;19908;-35
2021/09/07 08:39:27;;;;;;;;;;;;;;;19.64;73.73;102440.94;5092963;28;19912;-35
2021/09/07 08:41:52;;;;;;;;;;;;;;;19.69;71.32;102438.25;5093576;28;20354;-35
2021/09/07 08:44:18;;;;;;;;;;;;;;;19.73;72.95;102441.31;5092728;28;19908;-35
2021/09/07 08:46:44;;;;;;;;;;;;;;;19.78;73.63;102436.72;5093097;28;19965;-35
2021/09/07 08:49:11;;;;;;;;;;;;;;;19.87;73.67;102439.03;5092925;28;19916;-35
2021/09/07 08:51:36;;;;;;;;;;;;;;;19.97;73.58;102439.16;5093013;28;19914;-35
2021/09/07 08:54:01;;;;;;;;;;;;;;;20.03;73.14;102432.66;5093444;28;20353;-36
2021/09/07 08:56:27;;;;;;;;;;;;;;;20.10;73.13;102435.19;5093689;28;19912;-35
2021/09/07 08:58:52;;;;;;;;;;;;;;;20.14;70.85;102439.91;5092480;28;19999;-35
2021/09/07 09:01:18;;;;;;;;;;;;;;;20.20;72.03;102430.63;5092764;28;19961;-35
2021/09/07 09:03:46;;;;;;;;;;;;;;;20.30;70.72;102433.53;5093006;28;19908;-35
2021/09/07 09:06:11;;;;;;;;;;;;;;;20.42;71.15;102438.84;5093235;28;19912;-35
2021/09/07 09:08:37;;;;;;;;;;;;;;;20.56;69.38;102433.81;5092654;28;19916;-35
2021/09/07 09:11:06;;;;;;;;;;;;;;;20.65;68.04;102429.50;5094518;28;20367;-35
2021/09/07 09:13:47;;;;;;;;;;;;;;;20.70;69.40;102426.00;5097076;28;19908;-35
2021/09/07 09:16:13;;;;;;;;;;;;;;;20.73;68.57;102425.44;5096016;28;19912;-35
2021/09/07 09:18:48;;;;;;;;;;;;;;;20.74;68.03;102427.94;5096088;28;19911;-35
2021/09/07 09:21:22;;;;;;;;;;;;;;;20.80;68.93;102435.16;5096227;28;19908;-35
2021/09/07 09:24:06;;;;;;;;;;;;;;;20.91;66.06;102432.47;5096175;28;20010;-35
2021/09/07 09:26:31;;;;;;;;;;;;;;;21.07;67.08;102435.09;5096453;28;19907;-35
2021/09/07 09:28:58;;;;;;;;;;;;;;;21.18;64.35;102433.25;5095778;28;19919;-35
2021/09/07 09:31:23;;;;;;;;;;;;;;;21.22;65.24;102433.53;5096616;28;19919;-35
2021/09/07 09:34:00;;;;;;;;;;;;;;;21.27;64.22;102433.56;5096187;28;20267;-35
2021/09/07 09:36:29;;;;;;;;;;;;;;;21.33;65.90;102430.66;5095737;28;19930;-35
2021/09/07 09:38:55;;;;;;;;;;;;;;;21.38;64.95;102431.78;5095665;28;19930;-35
2021/09/07 09:41:20;;;;;;;;;;;;;;;21.38;61.99;102427.09;5095526;28;19908;-35
2021/09/07 09:43:45;;;;;;;;;;;;;;;21.42;62.50;102427.38;5095528;28;19908;-35
2021/09/07 09:46:24;;;;;;;;;;;;;;;21.50;65.06;102418.63;5095846;28;19999;-35
2021/09/07 09:48:50;;;;;;;;;;;;;;;21.64;64.89;102425.31;5095473;28;20372;-35
2021/09/07 09:51:17;;;;;;;;;;;;;;;21.80;61.79;102429.78;5095998;28;19955;-35
2021/09/07 09:53:44;;;;;;;;;;;;;;;21.96;60.76;102422.44;5095368;28;20359;-35
2021/09/07 09:56:09;;;;;;;;;;;;;;;22.02;60.43;102423.28;5095397;28;19908;-35
2021/09/07 09:58:34;;;;;;;;;;;;;;;22.14;60.90;102415.63;5095611;28;19915;-35
2021/09/07 10:01:00;;;;;;;;;;;;;;;22.27;57.29;102417.88;5095231;28;20107;-35
2021/09/07 10:03:27;;;;;;;;;;;;;;;22.39;58.90;102414.03;5095289;28;19908;-35
2021/09/07 10:05:53;;;;;;;;;;;;;;;22.44;57.24;102416.81;5095656;28;20260;-35
2021/09/07 10:08:18;;;;;;;;;;;;;;;22.52;56.20;102414.34;5095398;28;19908;-35
2021/09/07 10:10:59;;;;;;;;;;;;;;;22.63;58.20;102415.19;5095425;28;20258;-35
2021/09/07 10:13:25;;;;;;;;;;;;;;;22.80;57.13;102406.66;5095841;28;20058;-36
2021/09/07 10:16:00;;;;;;;;;;;;;;;22.91;57.49;102402.00;5095900;28;19919;-35
2021/09/07 10:26:14;;;;;;;;;;;;;;;23.24;56.10;102406.09;5095550;28;19947;-35
2021/09/07 10:28:41;;;;;;;;;;;;;;;23.29;55.46;102393.13;5095121;28;19907;-35
2021/09/07 10:31:13;;;;;;;;;;;;;;;23.33;53.45;102396.97;5094767;28;20364;-35
2021/09/07 10:33:47;;;;;;;;;;;;;;;23.34;51.78;102398.63;5094683;28;19915;-35
2021/09/07 10:36:17;;;;;;;;;;;;;;;23.46;54.98;102394.72;5095672;28;19950;-35
2021/09/07 10:38:43;;;;;;;;;;;;;;;23.45;49.61;102399.41;5095214;28;19908;-35
2021/09/07 10:41:09;;;;;;;;;;;;;;;23.53;52.23;102393.31;5095053;28;19912;-35
2021/09/07 10:43:51;;;;;;;;;;;;;;;23.65;53.45;102387.50;5094745;28;19915;-35
2021/09/07 10:46:35;;;;;;;;;;;;;;;23.78;53.02;102383.31;5095260;28;19950;-35
2021/09/07 10:49:12;;;;;;;;;;;;;;;23.88;52.59;102381.34;5094740;28;19959;-35
2021/09/07 10:51:57;;;;;;;;;;;;;;;24.03;51.49;102371.31;5094234;28;20002;-35
2021/09/07 10:54:24;;;;;;;;;;;;;;;24.12;53.25;102377.91;5094717;28;20372;-35
2021/09/07 10:56:49;;;;;;;;;;;;;;;24.26;54.07;102375.31;5094476;28;19951;-36
2021/09/07 10:59:40;;;;;;;;;;;;;;;24.36;51.74;102373.34;5094066;28;20386;-35
2021/09/07 11:02:31;;;;;;;;;;;;;;;24.33;50.67;102371.13;5090759;28;20002;-35
2021/09/07 11:04:58;;;;;;;;;;;;;;;24.33;52.63;102367.53;5094428;28;19953;-35
2021/09/07 11:07:32;;;;;;;;;;;;;;;24.45;52.73;102361.66;5094535;28;19939;-35
2021/09/07 11:09:58;;;;;;;;;;;;;;;24.54;53.54;102354.41;5094188;28;20028;-35
2021/09/07 11:12:24;;;;;;;;;;;;;;;24.64;52.95;102359.84;5093816;28;19919;-35
2021/09/07 11:15:00;;;;;;;;;;;;;;;24.72;53.01;102356.47;5093900;28;19924;-35
2021/09/07 11:17:25;;;;;;;;;;;;;;;24.82;52.22;102348.06;5094693;28;19961;-35
2021/09/07 11:19:57;;;;;;;;;;;;;;;24.89;51.07;102351.34;5093973;28;19907;-35
2021/09/07 11:22:26;;;;;;;;;;;;;;;24.91;52.69;102343.56;5094601;28;19908;-35
2021/09/07 11:25:02;;;;;;;;;;;;;;;25.06;53.07;102347.28;5093917;28;19908;-35
2021/09/07 11:27:27;;;;;;;;;;;;;;;25.08;51.15;102353.38;5094371;28;19911;-35
2021/09/07 11:29:52;;;;;;;;;;;;;;;25.13;52.76;102348.63;5093860;28;20332;-35
2021/09/07 11:32:21;;;;;;;;;;;;;;;24.97;52.34;102349.03;5094098;28;19908;-35
2021/09/07 11:35:05;;;;;;;;;;;;;;;25.04;52.05;102349.53;5093439;28;20243;-35
2021/09/07 11:37:30;;;;;;;;;;;;;;;25.24;51.74;102349.34;5094246;28;19908;-35
2021/09/07 11:40:12;;;;;;;;;;;;;;;25.39;51.78;102343.63;5093714;28;19931;-35
2021/09/07 11:42:44;;;;;;;;;;;;;;;25.37;48.55;102343.06;5094212;28;19912;-36
2021/09/07 11:45:15;;;;;;;;;;;;;;;25.22;50.79;102343.25;5093886;28;19947;-35
2021/09/07 11:47:42;;;;;;;;;;;;;;;25.11;49.89;102339.78;5093738;28;19990;-37
2021/09/07 11:50:08;;;;;;;;;;;;;;;25.00;48.08;102337.41;5094233;28;19973;-36
2021/09/07 11:52:33;;;;;;;;;;;;;;;25.21;50.04;102335.25;5093579;28;20385;-36
2021/09/07 11:54:58;;;;;;;;;;;;;;;25.41;50.88;102324.75;5093581;28;20355;-35
2021/09/07 11:57:23;;;;;;;;;;;;;;;25.62;49.33;102330.03;5093545;28;19961;-35
2021/09/07 11:59:58;;;;;;;;;;;;;;;25.76;50.67;102324.63;5094206;28;19934;-35
2021/09/07 12:02:25;;;;;;;;;;;;;;;25.87;50.28;102324.19;5093270;28;19961;-36
2021/09/07 12:04:55;;;;;;;;;;;;;;;25.86;48.60;102324.47;5093681;28;19908;-36
2021/09/07 12:07:20;;;;;;;;;;;;;;;25.63;47.67;102326.16;5093343;28;20351;-35
2021/09/07 12:09:45;;;;;;;;;;;;;;;25.49;48.78;102325.25;5093386;28;19907;-36
2021/09/07 12:12:11;;;;;;;;;;;;;;;25.57;48.82;102321.78;5093056;28;20379;-35
2021/09/07 12:14:40;;;;;;;;;;;;;;;25.67;49.26;102311.44;5092986;28;19919;-35
2021/09/07 12:17:06;;;;;;;;;;;;;;;25.79;48.58;102305.47;5093583;28;19908;-35
2021/09/07 12:19:36;;;;;;;;;;;;;;;25.85;47.30;102309.81;5093462;28;20356;-35
2021/09/07 12:22:05;;;;;;;;;;;;;;;25.80;46.65;102315.41;5093716;28;19908;-35
2021/09/07 12:24:30;;;;;;;;;;;;;;;25.87;47.88;102312.28;5093162;28;20294;-36
2021/09/07 12:26:55;;;;;;;;;;;;;;;25.94;48.72;102308.00;5093273;28;19969;-35
2021/09/07 12:29:20;;;;;;;;;;;;;;;26.00;48.81;102302.38;5093175;28;19908;-35
2021/09/07 12:31:46;;;;;;;;;;;;;;;26.11;48.77;102304.72;5093344;28;19907;-35
2021/09/07 12:34:18;;;;;;;;;;;;;;;26.20;46.81;102304.84;5093032;28;19908;-36
2021/09/07 12:36:45;;;;;;;;;;;;;;;26.34;47.81;102308.50;5093369;28;19908;-35
2021/09/07 12:39:10;;;;;;;;;;;;;;;26.43;46.92;102306.72;5093055;28;19912;-35